sensor_id;sensor_type;location;lat;lon;timestamp;pressure;altitude;pressure_sealevel;temperature;humidity
84683;BME280;74905;44.124;18.116;2024-03-25T00:00:13;96394.13;;;1.76;81.85
84683;BME280;74905;44.124;18.116;2024-03-25T00:02:40;96394.72;;;1.65;82.26
84683;BME280;74905;44.124;18.116;2024-03-25T00:05:06;96393.69;;;1.61;83.30
84683;BME280;74905;44.124;18.116;2024-03-25T00:07:35;96391.09;;;1.63;82.48
84683;BME280;74905;44.124;18.116;2024-03-25T00:10:01;96396.44;;;1.70;82.49
84683;BME280;74905;44.124;18.116;2024-03-25T00:12:27;96391.09;;;1.72;82.95
84683;BME280;74905;44.124;18.116;2024-03-25T00:14:53;96384.47;;;1.66;82.50
84683;BME280;74905;44.124;18.116;2024-03-25T00:17:18;96383.44;;;1.61;83.83
84683;BME280;74905;44.124;18.116;2024-03-25T00:19:46;96378.13;;;1.63;84.05
84683;BME280;74905;44.124;18.116;2024-03-25T00:22:16;96372.63;;;1.63;83.22
84683;BME280;74905;44.124;18.116;2024-03-25T00:24:42;96372.22;;;1.47;84.08
84683;BME280;74905;44.124;18.116;2024-03-25T00:27:08;96367.63;;;1.40;83.91
84683;BME280;74905;44.124;18.116;2024-03-25T00:29:34;96365.47;;;1.39;83.99
84683;BME280;74905;44.124;18.116;2024-03-25T00:31:59;96372.38;;;1.40;84.17
84683;BME280;74905;44.124;18.116;2024-03-25T00:34:25;96373.69;;;1.39;83.12
84683;BME280;74905;44.124;18.116;2024-03-25T00:36:50;96371.94;;;1.34;84.03
84683;BME280;74905;44.124;18.116;2024-03-25T00:39:16;96368.34;;;1.31;83.71
84683;BME280;74905;44.124;18.116;2024-03-25T00:41:42;96363.31;;;1.28;84.01
84683;BME280;74905;44.124;18.116;2024-03-25T00:44:08;96372.25;;;1.28;84.47
84683;BME280;74905;44.124;18.116;2024-03-25T00:46:33;96373.97;;;1.24;84.46
84683;BME280;74905;44.124;18.116;2024-03-25T00:48:59;96365.91;;;1.26;84.78
84683;BME280;74905;44.124;18.116;2024-03-25T00:51:24;96363.44;;;1.30;84.33
84683;BME280;74905;44.124;18.116;2024-03-25T00:53:50;96364.91;;;1.31;84.22
84683;BME280;74905;44.124;18.116;2024-03-25T00:56:16;96359.41;;;1.31;83.91
84683;BME280;74905;44.124;18.116;2024-03-25T00:58:41;96361.69;;;1.34;83.86
84683;BME280;74905;44.124;18.116;2024-03-25T01:01:07;96367.34;;;1.36;83.84
84683;BME280;74905;44.124;18.116;2024-03-25T01:03:32;96358.41;;;1.26;84.19
84683;BME280;74905;44.124;18.116;2024-03-25T01:05:59;96359.41;;;1.21;83.60
84683;BME280;74905;44.124;18.116;2024-03-25T01:08:25;96362.59;;;1.18;84.43
84683;BME280;74905;44.124;18.116;2024-03-25T01:10:50;96355.50;;;1.15;84.20
84683;BME280;74905;44.124;18.116;2024-03-25T01:13:16;96362.00;;;1.19;84.03
84683;BME280;74905;44.124;18.116;2024-03-25T01:15:41;96365.03;;;1.23;84.27
84683;BME280;74905;44.124;18.116;2024-03-25T01:18:07;96352.50;;;1.20;83.69
84683;BME280;74905;44.124;18.116;2024-03-25T01:20:33;96361.00;;;1.15;84.15
84683;BME280;74905;44.124;18.116;2024-03-25T01:22:59;96356.69;;;1.11;84.01
84683;BME280;74905;44.124;18.116;2024-03-25T01:25:24;96361.84;;;1.07;84.19
84683;BME280;74905;44.124;18.116;2024-03-25T01:27:50;96356.69;;;1.02;84.18
84683;BME280;74905;44.124;18.116;2024-03-25T01:30:17;96361.84;;;1.07;84.98
84683;BME280;74905;44.124;18.116;2024-03-25T01:32:44;96359.13;;;1.17;85.13
84683;BME280;74905;44.124;18.116;2024-03-25T01:35:13;96356.06;;;1.32;85.09
84683;BME280;74905;44.124;18.116;2024-03-25T01:37:38;96360.13;;;1.41;85.35
84683;BME280;74905;44.124;18.116;2024-03-25T01:40:04;96368.47;;;1.43;84.59
84683;BME280;74905;44.124;18.116;2024-03-25T01:42:30;96369.03;;;1.51;84.44
84683;BME280;74905;44.124;18.116;2024-03-25T01:44:56;96368.59;;;1.55;83.66
84683;BME280;74905;44.124;18.116;2024-03-25T01:47:22;96357.63;;;1.55;84.58
84683;BME280;74905;44.124;18.116;2024-03-25T01:49:47;96368.47;;;1.43;84.38
84683;BME280;74905;44.124;18.116;2024-03-25T01:52:15;96364.44;;;1.44;84.96
84683;BME280;74905;44.124;18.116;2024-03-25T01:54:41;96363.88;;;1.36;84.55
84683;BME280;74905;44.124;18.116;2024-03-25T01:57:07;96361.44;;;1.30;85.76
84683;BME280;74905;44.124;18.116;2024-03-25T01:59:33;96369.19;;;1.34;86.14
84683;BME280;74905;44.124;18.116;2024-03-25T02:01:58;96373.22;;;1.42;85.01
84683;BME280;74905;44.124;18.116;2024-03-25T02:04:25;96371.94;;;1.43;85.08
84683;BME280;74905;44.124;18.116;2024-03-25T02:06:51;96366.59;;;1.36;85.23
84683;BME280;74905;44.124;18.116;2024-03-25T02:09:17;96361.56;;;1.32;85.23
84683;BME280;74905;44.124;18.116;2024-03-25T02:11:43;96365.88;;;1.35;86.28
84683;BME280;74905;44.124;18.116;2024-03-25T02:14:09;96361.69;;;1.34;85.46
84683;BME280;74905;44.124;18.116;2024-03-25T02:16:35;96365.31;;;1.37;85.78
84683;BME280;74905;44.124;18.116;2024-03-25T02:19:00;96362.72;;;1.39;86.26
84683;BME280;74905;44.124;18.116;2024-03-25T02:21:26;96371.94;;;1.53;85.77
84683;BME280;74905;44.124;18.116;2024-03-25T02:23:53;96366.59;;;1.55;84.78
84683;BME280;74905;44.124;18.116;2024-03-25T02:26:21;96377.53;;;1.65;84.82
84683;BME280;74905;44.124;18.116;2024-03-25T02:28:48;96375.66;;;1.77;84.18
84683;BME280;74905;44.124;18.116;2024-03-25T02:31:14;96379.66;;;1.85;83.53
84683;BME280;74905;44.124;18.116;2024-03-25T02:33:40;96381.53;;;1.83;82.97
84683;BME280;74905;44.124;18.116;2024-03-25T02:36:07;96384.25;;;1.93;83.30
84683;BME280;74905;44.124;18.116;2024-03-25T02:38:34;96385.56;;;1.92;82.82
84683;BME280;74905;44.124;18.116;2024-03-25T02:41:00;96389.34;;;1.86;82.16
84683;BME280;74905;44.124;18.116;2024-03-25T02:43:26;96394.97;;;1.89;82.56
84683;BME280;74905;44.124;18.116;2024-03-25T02:45:52;96398.44;;;1.79;82.21
84683;BME280;74905;44.124;18.116;2024-03-25T02:48:17;96404.38;;;1.66;83.09
84683;BME280;74905;44.124;18.116;2024-03-25T02:50:43;96401.94;;;1.61;83.07
84683;BME280;74905;44.124;18.116;2024-03-25T02:53:08;96405.41;;;1.52;82.93
84683;BME280;74905;44.124;18.116;2024-03-25T02:55:34;96408.03;;;1.40;84.10
84683;BME280;74905;44.124;18.116;2024-03-25T02:58:00;96407.00;;;1.35;84.00
84683;BME280;74905;44.124;18.116;2024-03-25T03:00:25;96409.47;;;1.41;84.29
84683;BME280;74905;44.124;18.116;2024-03-25T03:02:51;96412.06;;;1.39;83.43
84683;BME280;74905;44.124;18.116;2024-03-25T03:05:16;96419.41;;;1.36;84.15
84683;BME280;74905;44.124;18.116;2024-03-25T03:07:42;96416.38;;;1.42;84.00
84683;BME280;74905;44.124;18.116;2024-03-25T03:10:08;96423.88;;;1.51;84.03
84683;BME280;74905;44.124;18.116;2024-03-25T03:12:34;96418.38;;;1.51;83.47
84683;BME280;74905;44.124;18.116;2024-03-25T03:14:59;96419.97;;;1.54;83.83
84683;BME280;74905;44.124;18.116;2024-03-25T03:17:25;96419.97;;;1.54;83.66
84683;BME280;74905;44.124;18.116;2024-03-25T03:19:50;96425.91;;;1.60;83.83
84683;BME280;74905;44.124;18.116;2024-03-25T03:22:16;96429.06;;;1.66;83.42
84683;BME280;74905;44.124;18.116;2024-03-25T03:24:42;96421.09;;;1.70;83.45
84683;BME280;74905;44.124;18.116;2024-03-25T03:27:07;96432.22;;;1.72;83.88
84683;BME280;74905;44.124;18.116;2024-03-25T03:29:33;96438.59;;;1.75;83.32
84683;BME280;74905;44.124;18.116;2024-03-25T03:31:58;96427.63;;;1.75;82.52
84683;BME280;74905;44.124;18.116;2024-03-25T03:34:25;96438.41;;;1.82;83.22
84683;BME280;74905;44.124;18.116;2024-03-25T03:36:51;96438.41;;;1.82;83.73
84683;BME280;74905;44.124;18.116;2024-03-25T03:39:16;96442.47;;;1.72;82.60
84683;BME280;74905;44.124;18.116;2024-03-25T03:41:42;96433.97;;;1.77;83.94
84683;BME280;74905;44.124;18.116;2024-03-25T03:44:08;96438.59;;;1.75;83.83
84683;BME280;74905;44.124;18.116;2024-03-25T03:46:38;96448.81;;;1.84;83.96
84683;BME280;74905;44.124;18.116;2024-03-25T03:49:03;96451.69;;;1.96;83.14
84683;BME280;74905;44.124;18.116;2024-03-25T03:51:29;96449.38;;;1.92;82.63
84683;BME280;74905;44.124;18.116;2024-03-25T03:53:54;96445.66;;;1.88;82.77
84683;BME280;74905;44.124;18.116;2024-03-25T03:56:20;96450.13;;;1.83;82.81
84683;BME280;74905;44.124;18.116;2024-03-25T03:58:45;96451.97;;;2.00;83.31
84683;BME280;74905;44.124;18.116;2024-03-25T04:01:15;96454.41;;;2.15;82.04
84683;BME280;74905;44.124;18.116;2024-03-25T04:03:41;96456.94;;;2.32;82.34
84683;BME280;74905;44.124;18.116;2024-03-25T04:06:11;96449.59;;;2.25;81.08
84683;BME280;74905;44.124;18.116;2024-03-25T04:08:38;96460.16;;;2.19;81.76
84683;BME280;74905;44.124;18.116;2024-03-25T04:11:04;96463.81;;;2.02;81.89
84683;BME280;74905;44.124;18.116;2024-03-25T04:13:32;96463.09;;;2.02;82.42
84683;BME280;74905;44.124;18.116;2024-03-25T04:16:01;96470.03;;;1.93;82.06
84683;BME280;74905;44.124;18.116;2024-03-25T04:18:28;96476.38;;;1.96;82.51
84683;BME280;74905;44.124;18.116;2024-03-25T04:20:54;96475.22;;;1.89;82.71
84683;BME280;74905;44.124;18.116;2024-03-25T04:23:19;96477.41;;;1.91;82.56
84683;BME280;74905;44.124;18.116;2024-03-25T04:25:45;96482.31;;;1.92;82.23
84683;BME280;74905;44.124;18.116;2024-03-25T04:28:10;96486.81;;;1.88;81.69
84683;BME280;74905;44.124;18.116;2024-03-25T04:30:36;96488.50;;;1.93;81.82
84683;BME280;74905;44.124;18.116;2024-03-25T04:33:02;96494.72;;;1.83;82.51
84683;BME280;74905;44.124;18.116;2024-03-25T04:35:28;96484.78;;;1.88;82.33
84683;BME280;74905;44.124;18.116;2024-03-25T04:37:53;96491.25;;;1.93;81.81
84683;BME280;74905;44.124;18.116;2024-03-25T04:40:22;96491.09;;;2.10;83.20
84683;BME280;74905;44.124;18.116;2024-03-25T04:42:48;96493.38;;;2.23;82.65
84683;BME280;74905;44.124;18.116;2024-03-25T04:45:14;96494.09;;;2.23;81.83
84683;BME280;74905;44.124;18.116;2024-03-25T04:47:40;96511.31;;;2.24;81.83
84683;BME280;74905;44.124;18.116;2024-03-25T04:50:06;96506.94;;;2.31;82.14
84683;BME280;74905;44.124;18.116;2024-03-25T04:52:32;96510.84;;;2.28;82.03
84683;BME280;74905;44.124;18.116;2024-03-25T04:54:58;96514.25;;;2.47;81.40
84683;BME280;74905;44.124;18.116;2024-03-25T04:57:24;96511.94;;;2.53;80.85
84683;BME280;74905;44.124;18.116;2024-03-25T04:59:50;96509.63;;;2.50;80.47
84683;BME280;74905;44.124;18.116;2024-03-25T05:02:15;96513.28;;;2.43;80.63
84683;BME280;74905;44.124;18.116;2024-03-25T05:04:41;96513.13;;;2.41;80.96
84683;BME280;74905;44.124;18.116;2024-03-25T05:07:07;96511.25;;;2.43;80.96
84683;BME280;74905;44.124;18.116;2024-03-25T05:09:32;96510.38;;;2.41;80.49
84683;BME280;74905;44.124;18.116;2024-03-25T05:11:58;96514.56;;;2.51;80.75
84683;BME280;74905;44.124;18.116;2024-03-25T05:14:24;96515.53;;;2.56;81.11
84683;BME280;74905;44.124;18.116;2024-03-25T05:16:50;96512.91;;;2.68;80.23
84683;BME280;74905;44.124;18.116;2024-03-25T05:19:17;96515.47;;;2.75;80.32
84683;BME280;74905;44.124;18.116;2024-03-25T05:21:44;96516.47;;;2.80;79.51
84683;BME280;74905;44.124;18.116;2024-03-25T05:24:09;96528.34;;;2.82;79.24
84683;BME280;74905;44.124;18.116;2024-03-25T05:26:35;96533.69;;;2.80;78.97
84683;BME280;74905;44.124;18.116;2024-03-25T05:29:00;96525.03;;;2.74;78.54
84683;BME280;74905;44.124;18.116;2024-03-25T05:31:26;96530.72;;;2.57;78.38
84683;BME280;74905;44.124;18.116;2024-03-25T05:33:53;96537.66;;;2.58;78.82
84683;BME280;74905;44.124;18.116;2024-03-25T05:36:18;96542.16;;;2.53;78.66
84683;BME280;74905;44.124;18.116;2024-03-25T05:38:44;96548.81;;;2.50;79.29
84683;BME280;74905;44.124;18.116;2024-03-25T05:41:10;96553.16;;;2.53;79.71
84683;BME280;74905;44.124;18.116;2024-03-25T05:43:36;96552.44;;;2.43;79.67
84683;BME280;74905;44.124;18.116;2024-03-25T05:46:02;96545.91;;;2.48;79.70
84683;BME280;74905;44.124;18.116;2024-03-25T05:48:28;96553.88;;;2.54;79.90
84683;BME280;74905;44.124;18.116;2024-03-25T05:51:01;96553.84;;;2.64;80.48
84683;BME280;74905;44.124;18.116;2024-03-25T05:53:28;96557.25;;;2.74;79.75
84683;BME280;74905;44.124;18.116;2024-03-25T05:55:53;96564.47;;;2.88;79.73
84683;BME280;74905;44.124;18.116;2024-03-25T05:58:19;96559.38;;;2.94;78.96
84683;BME280;74905;44.124;18.116;2024-03-25T06:00:49;96562.84;;;2.95;78.49
84683;BME280;74905;44.124;18.116;2024-03-25T06:03:15;96568.88;;;3.03;79.50
84683;BME280;74905;44.124;18.116;2024-03-25T06:05:41;96575.25;;;3.06;78.84
84683;BME280;74905;44.124;18.116;2024-03-25T06:08:07;96569.88;;;3.08;77.92
84683;BME280;74905;44.124;18.116;2024-03-25T06:10:41;96581.31;;;3.04;78.95
84683;BME280;74905;44.124;18.116;2024-03-25T06:13:07;96582.72;;;3.15;78.25
84683;BME280;74905;44.124;18.116;2024-03-25T06:15:32;96583.59;;;3.17;77.83
84683;BME280;74905;44.124;18.116;2024-03-25T06:17:58;96590.34;;;3.26;77.93
84683;BME280;74905;44.124;18.116;2024-03-25T06:20:23;96593.97;;;3.28;78.08
84683;BME280;74905;44.124;18.116;2024-03-25T06:22:49;96603.22;;;3.23;78.43
84683;BME280;74905;44.124;18.116;2024-03-25T06:25:16;96596.28;;;3.22;77.78
84683;BME280;74905;44.124;18.116;2024-03-25T06:27:43;96600.47;;;3.23;78.35
84683;BME280;74905;44.124;18.116;2024-03-25T06:30:10;96603.22;;;3.23;77.93
84683;BME280;74905;44.124;18.116;2024-03-25T06:32:54;96605.34;;;3.34;78.32
84683;BME280;74905;44.124;18.116;2024-03-25T06:35:38;96611.53;;;3.45;78.46
84683;BME280;74905;44.124;18.116;2024-03-25T06:38:04;96611.34;;;3.52;78.39
84683;BME280;74905;44.124;18.116;2024-03-25T06:40:30;96615.50;;;3.63;77.68
84683;BME280;74905;44.124;18.116;2024-03-25T06:42:56;96613.69;;;3.77;77.47
84683;BME280;74905;44.124;18.116;2024-03-25T06:45:22;96617.22;;;3.89;76.73
84683;BME280;74905;44.124;18.116;2024-03-25T06:47:48;96629.94;;;3.94;76.38
84683;BME280;74905;44.124;18.116;2024-03-25T06:50:14;96639.38;;;3.91;75.76
84683;BME280;74905;44.124;18.116;2024-03-25T06:52:40;96633.59;;;3.87;76.21
84683;BME280;74905;44.124;18.116;2024-03-25T06:55:06;96631.63;;;3.99;75.51
84683;BME280;74905;44.124;18.116;2024-03-25T06:57:33;96632.28;;;4.09;75.33
84683;BME280;74905;44.124;18.116;2024-03-25T06:59:59;96629.22;;;4.15;74.97
84683;BME280;74905;44.124;18.116;2024-03-25T07:02:24;96627.31;;;4.18;74.65
84683;BME280;74905;44.124;18.116;2024-03-25T07:04:51;96636.69;;;4.24;74.57
84683;BME280;74905;44.124;18.116;2024-03-25T07:07:17;96637.53;;;4.27;73.43
84683;BME280;74905;44.124;18.116;2024-03-25T07:09:43;96639.22;;;4.32;73.99
84683;BME280;74905;44.124;18.116;2024-03-25T07:12:11;96640.06;;;4.34;73.69
84683;BME280;74905;44.124;18.116;2024-03-25T07:14:37;96645.13;;;4.38;73.37
84683;BME280;74905;44.124;18.116;2024-03-25T07:17:03;96652.06;;;4.39;72.50
84683;BME280;74905;44.124;18.116;2024-03-25T07:19:28;96650.50;;;4.36;73.51
84683;BME280;74905;44.124;18.116;2024-03-25T07:21:54;96648.16;;;4.42;73.11
84683;BME280;74905;44.124;18.116;2024-03-25T07:24:20;96651.28;;;4.48;73.06
84683;BME280;74905;44.124;18.116;2024-03-25T07:26:45;96647.72;;;4.57;72.46
84683;BME280;74905;44.124;18.116;2024-03-25T07:29:11;96654.00;;;4.69;72.12
84683;BME280;74905;44.124;18.116;2024-03-25T07:31:37;96657.75;;;4.85;71.51
84683;BME280;74905;44.124;18.116;2024-03-25T07:34:02;96660.19;;;5.03;72.09
84683;BME280;74905;44.124;18.116;2024-03-25T07:36:28;96663.06;;;4.93;71.48
84683;BME280;74905;44.124;18.116;2024-03-25T07:38:59;96665.22;;;4.95;71.39
84683;BME280;74905;44.124;18.116;2024-03-25T07:41:24;96666.66;;;4.96;70.71
84683;BME280;74905;44.124;18.116;2024-03-25T07:43:50;96679.25;;;4.99;70.30
84683;BME280;74905;44.124;18.116;2024-03-25T07:46:15;96686.19;;;4.88;70.07
84683;BME280;74905;44.124;18.116;2024-03-25T07:48:41;96687.13;;;4.93;69.87
84683;BME280;74905;44.124;18.116;2024-03-25T07:51:07;96679.59;;;4.93;69.71
84683;BME280;74905;44.124;18.116;2024-03-25T07:53:33;96680.66;;;4.88;69.92
84683;BME280;74905;44.124;18.116;2024-03-25T07:55:58;96676.50;;;4.99;71.34
84683;BME280;74905;44.124;18.116;2024-03-25T07:58:24;96682.16;;;5.12;69.74
84683;BME280;74905;44.124;18.116;2024-03-25T08:00:49;96679.72;;;4.95;70.47
84683;BME280;74905;44.124;18.116;2024-03-25T08:03:16;96680.31;;;4.94;70.32
84683;BME280;74905;44.124;18.116;2024-03-25T08:05:42;96679.81;;;4.85;71.12
84683;BME280;74905;44.124;18.116;2024-03-25T08:08:07;96686.31;;;4.90;70.78
84683;BME280;74905;44.124;18.116;2024-03-25T08:10:33;96688.84;;;4.98;70.35
84683;BME280;74905;44.124;18.116;2024-03-25T08:12:59;96700.34;;;4.94;71.06
84683;BME280;74905;44.124;18.116;2024-03-25T08:15:24;96689.97;;;5.16;69.85
84683;BME280;74905;44.124;18.116;2024-03-25T08:17:51;96684.25;;;5.35;68.48
84683;BME280;74905;44.124;18.116;2024-03-25T08:20:17;96697.22;;;5.44;67.73
84683;BME280;74905;44.124;18.116;2024-03-25T08:22:43;96697.94;;;5.45;68.15
84683;BME280;74905;44.124;18.116;2024-03-25T08:25:09;96701.06;;;5.51;67.74
84683;BME280;74905;44.124;18.116;2024-03-25T08:27:35;96700.22;;;5.48;67.07
84683;BME280;74905;44.124;18.116;2024-03-25T08:30:00;96700.09;;;5.35;68.61
84683;BME280;74905;44.124;18.116;2024-03-25T08:32:26;96703.94;;;5.53;68.72
84683;BME280;74905;44.124;18.116;2024-03-25T08:34:52;96705.28;;;5.64;67.09
84683;BME280;74905;44.124;18.116;2024-03-25T08:37:17;96708.75;;;5.52;68.40
84683;BME280;74905;44.124;18.116;2024-03-25T08:39:43;96709.09;;;5.58;67.40
84683;BME280;74905;44.124;18.116;2024-03-25T08:42:09;96707.59;;;5.90;66.60
84683;BME280;74905;44.124;18.116;2024-03-25T08:44:34;96708.53;;;5.83;66.12
84683;BME280;74905;44.124;18.116;2024-03-25T08:47:00;96711.53;;;6.11;65.77
84683;BME280;74905;44.124;18.116;2024-03-25T08:49:26;96705.50;;;6.26;64.69
84683;BME280;74905;44.124;18.116;2024-03-25T08:51:52;96705.59;;;6.40;64.16
84683;BME280;74905;44.124;18.116;2024-03-25T08:54:17;96696.19;;;6.45;63.79
84683;BME280;74905;44.124;18.116;2024-03-25T08:56:43;96707.81;;;6.66;63.85
84683;BME280;74905;44.124;18.116;2024-03-25T08:59:08;96705.63;;;6.65;64.58
84683;BME280;74905;44.124;18.116;2024-03-25T09:01:35;96702.63;;;6.61;64.20
84683;BME280;74905;44.124;18.116;2024-03-25T09:04:00;96695.38;;;6.79;64.07
84683;BME280;74905;44.124;18.116;2024-03-25T09:06:27;96694.25;;;7.09;61.86
84683;BME280;74905;44.124;18.116;2024-03-25T09:08:53;96693.16;;;7.54;60.33
84683;BME280;74905;44.124;18.116;2024-03-25T09:11:37;96689.91;;;7.71;61.11
84683;BME280;74905;44.124;18.116;2024-03-25T09:14:02;96687.56;;;8.06;59.12
84683;BME280;74905;44.124;18.116;2024-03-25T09:16:30;96695.66;;;8.16;58.29
84683;BME280;74905;44.124;18.116;2024-03-25T09:18:55;96696.50;;;8.32;57.04
84683;BME280;74905;44.124;18.116;2024-03-25T09:21:21;96701.22;;;8.30;58.69
84683;BME280;74905;44.124;18.116;2024-03-25T09:23:50;96696.66;;;8.64;59.17
84683;BME280;74905;44.124;18.116;2024-03-25T09:26:15;96701.22;;;8.86;57.27
84683;BME280;74905;44.124;18.116;2024-03-25T09:28:42;96702.97;;;9.09;55.66
84683;BME280;74905;44.124;18.116;2024-03-25T09:31:07;96699.63;;;8.97;56.46
84683;BME280;74905;44.124;18.116;2024-03-25T09:33:33;96700.06;;;8.91;56.69
84683;BME280;74905;44.124;18.116;2024-03-25T09:35:59;96705.41;;;9.17;55.99
84683;BME280;74905;44.124;18.116;2024-03-25T09:38:25;96710.50;;;9.52;53.96
84683;BME280;74905;44.124;18.116;2024-03-25T09:40:52;96705.94;;;9.58;54.36
84683;BME280;74905;44.124;18.116;2024-03-25T09:43:48;96698.84;;;9.40;55.73
84683;BME280;74905;44.124;18.116;2024-03-25T09:46:15;96699.34;;;10.15;56.03
84683;BME280;74905;44.124;18.116;2024-03-25T09:48:42;96700.06;;;11.73;49.54
84683;BME280;74905;44.124;18.116;2024-03-25T09:51:09;96692.41;;;12.72;47.69
84683;BME280;74905;44.124;18.116;2024-03-25T09:53:35;96684.22;;;13.69;45.00
84683;BME280;74905;44.124;18.116;2024-03-25T09:56:01;96690.34;;;14.65;43.73
84683;BME280;74905;44.124;18.116;2024-03-25T09:58:27;96686.13;;;14.38;42.76
84683;BME280;74905;44.124;18.116;2024-03-25T10:00:54;96688.00;;;14.56;42.10
84683;BME280;74905;44.124;18.116;2024-03-25T10:03:21;96676.75;;;14.81;42.09
84683;BME280;74905;44.124;18.116;2024-03-25T10:05:47;96673.38;;;14.87;42.29
84683;BME280;74905;44.124;18.116;2024-03-25T10:08:12;96675.34;;;14.80;42.68
84683;BME280;74905;44.124;18.116;2024-03-25T10:10:38;96670.19;;;14.71;42.24
84683;BME280;74905;44.124;18.116;2024-03-25T10:13:04;96671.00;;;15.05;41.08
84683;BME280;74905;44.124;18.116;2024-03-25T10:15:32;96660.72;;;15.46;40.83
84683;BME280;74905;44.124;18.116;2024-03-25T10:17:58;96664.81;;;15.73;40.77
84683;BME280;74905;44.124;18.116;2024-03-25T10:20:24;96661.72;;;16.30;39.65
84683;BME280;74905;44.124;18.116;2024-03-25T10:22:51;96657.34;;;16.59;38.33
84683;BME280;74905;44.124;18.116;2024-03-25T10:25:27;96662.41;;;17.11;36.35
84683;BME280;74905;44.124;18.116;2024-03-25T10:28:02;96651.16;;;17.11;37.07
84683;BME280;74905;44.124;18.116;2024-03-25T10:30:28;96643.31;;;17.03;38.32
84683;BME280;74905;44.124;18.116;2024-03-25T10:33:02;96639.06;;;17.51;39.55
84683;BME280;74905;44.124;18.116;2024-03-25T10:35:32;96635.22;;;17.78;36.73
84683;BME280;74905;44.124;18.116;2024-03-25T10:38:00;96630.69;;;18.11;34.60
84683;BME280;74905;44.124;18.116;2024-03-25T10:40:31;96631.47;;;18.21;34.80
84683;BME280;74905;44.124;18.116;2024-03-25T10:43:08;96628.00;;;19.02;31.67
84683;BME280;74905;44.124;18.116;2024-03-25T10:45:47;96625.22;;;19.10;33.83
84683;BME280;74905;44.124;18.116;2024-03-25T10:48:19;96625.44;;;19.46;32.73
84683;BME280;74905;44.124;18.116;2024-03-25T10:50:47;96629.38;;;19.01;32.10
84683;BME280;74905;44.124;18.116;2024-03-25T10:53:17;96620.31;;;18.30;33.96
84683;BME280;74905;44.124;18.116;2024-03-25T10:55:46;96615.28;;;18.99;32.85
84683;BME280;74905;44.124;18.116;2024-03-25T10:58:15;96619.69;;;19.24;32.63
84683;BME280;74905;44.124;18.116;2024-03-25T11:03:11;96610.69;;;19.52;32.36
84683;BME280;74905;44.124;18.116;2024-03-25T11:05:37;96609.31;;;19.59;32.45
84683;BME280;74905;44.124;18.116;2024-03-25T11:08:16;96609.31;;;19.63;31.49
84683;BME280;74905;44.124;18.116;2024-03-25T11:10:46;96605.97;;;20.07;30.24
84683;BME280;74905;44.124;18.116;2024-03-25T11:13:13;96597.41;;;19.83;30.37
84683;BME280;74905;44.124;18.116;2024-03-25T11:15:47;96598.91;;;20.20;29.91
84683;BME280;74905;44.124;18.116;2024-03-25T11:18:14;96590.34;;;19.82;30.13
84683;BME280;74905;44.124;18.116;2024-03-25T11:20:41;96577.09;;;20.37;30.20
84683;BME280;74905;44.124;18.116;2024-03-25T11:23:12;96575.66;;;20.99;30.16
84683;BME280;74905;44.124;18.116;2024-03-25T11:25:38;96562.94;;;20.92;29.44
84683;BME280;74905;44.124;18.116;2024-03-25T11:28:08;96554.19;;;21.87;26.83
84683;BME280;74905;44.124;18.116;2024-03-25T11:30:36;96548.66;;;21.52;26.72
84683;BME280;74905;44.124;18.116;2024-03-25T11:33:03;96540.31;;;20.92;27.55
84683;BME280;74905;44.124;18.116;2024-03-25T11:35:37;96538.84;;;21.15;27.06
84683;BME280;74905;44.124;18.116;2024-03-25T11:38:03;96544.41;;;21.60;28.32
84683;BME280;74905;44.124;18.116;2024-03-25T11:40:29;96541.97;;;22.19;24.72
84683;BME280;74905;44.124;18.116;2024-03-25T11:42:55;96549.03;;;22.20;24.81
84683;BME280;74905;44.124;18.116;2024-03-25T11:45:21;96543.09;;;22.56;23.91
84683;BME280;74905;44.124;18.116;2024-03-25T11:47:49;96542.94;;;22.79;25.06
84683;BME280;74905;44.124;18.116;2024-03-25T11:50:19;96534.03;;;22.38;24.98
84683;BME280;74905;44.124;18.116;2024-03-25T11:52:45;96540.13;;;21.67;25.14
84683;BME280;74905;44.124;18.116;2024-03-25T11:55:19;96536.06;;;21.21;24.97
84683;BME280;74905;44.124;18.116;2024-03-25T11:57:55;96545.28;;;20.81;22.66
84683;BME280;74905;44.124;18.116;2024-03-25T12:00:21;96541.00;;;20.13;24.63
84683;BME280;74905;44.124;18.116;2024-03-25T12:02:48;96548.78;;;18.63;27.39
84683;BME280;74905;44.124;18.116;2024-03-25T12:05:16;96539.91;;;18.14;26.21
84683;BME280;74905;44.124;18.116;2024-03-25T12:07:41;96547.13;;;17.63;26.12
84683;BME280;74905;44.124;18.116;2024-03-25T12:10:07;96540.47;;;17.38;28.04
84683;BME280;74905;44.124;18.116;2024-03-25T12:12:51;96531.22;;;17.30;26.68
84683;BME280;74905;44.124;18.116;2024-03-25T12:15:20;96530.91;;;18.30;27.42
84683;BME280;74905;44.124;18.116;2024-03-25T12:17:46;96524.78;;;20.28;25.46
84683;BME280;74905;44.124;18.116;2024-03-25T12:20:12;96530.38;;;21.05;22.08
84683;BME280;74905;44.124;18.116;2024-03-25T12:22:41;96514.31;;;23.03;20.83
84683;BME280;74905;44.124;18.116;2024-03-25T12:25:08;96525.31;;;23.95;19.99
84683;BME280;74905;44.124;18.116;2024-03-25T12:27:35;96513.81;;;23.50;19.38
84683;BME280;74905;44.124;18.116;2024-03-25T12:30:05;96511.56;;;22.99;20.14
84683;BME280;74905;44.124;18.116;2024-03-25T12:32:35;96508.97;;;21.67;21.97
84683;BME280;74905;44.124;18.116;2024-03-25T12:35:01;96501.56;;;22.22;20.52
84683;BME280;74905;44.124;18.116;2024-03-25T12:37:27;96502.22;;;22.29;21.60
84683;BME280;74905;44.124;18.116;2024-03-25T12:39:53;96495.91;;;23.02;19.26
84683;BME280;74905;44.124;18.116;2024-03-25T12:42:19;96488.22;;;23.56;19.30
84683;BME280;74905;44.124;18.116;2024-03-25T12:44:45;96465.97;;;25.04;17.64
84683;BME280;74905;44.124;18.116;2024-03-25T12:47:11;96467.72;;;24.84;19.29
84683;BME280;74905;44.124;18.116;2024-03-25T12:49:37;96460.78;;;24.75;17.99
84683;BME280;74905;44.124;18.116;2024-03-25T12:52:05;96453.91;;;25.01;18.19
84683;BME280;74905;44.124;18.116;2024-03-25T12:54:32;96457.31;;;25.45;17.52
84683;BME280;74905;44.124;18.116;2024-03-25T12:56:58;96451.59;;;26.11;16.81